Time;durP1;ratioP1;P1;durP2;ratioP2;P2;SDS_P1;SDS_P2;PMS_P1;PMS_P2;Temp;Humidity;BMP_temperature;BMP_pressure;BME280_temperature;BME280_humidity;BME280_pressure;Samples;Min_cycle;Max_cycle;Signal;HPM_P1;HPM_P2
2021/12/19 00:00:17;;;;;;;12.75;5.30;;;6.90;99.90;;;;;;4967517;28;20096;-82
2021/12/19 00:02:59;;;;;;;11.20;4.53;;;7.00;99.90;;;;;;4953654;28;20062;-82
2021/12/19 00:08:31;;;;;;;7.25;2.95;;;7.00;99.90;;;;;;4965295;28;20070;-82
2021/12/19 00:10:57;;;;;;;9.65;3.92;;;7.00;99.90;;;;;;4981091;28;20042;-82
2021/12/19 00:13:25;;;;;;;7.13;3.40;;;7.00;99.90;;;;;;4967258;28;20046;-82
2021/12/19 00:15:51;;;;;;;7.22;2.97;;;7.00;99.90;;;;;;4952153;28;20038;-82
2021/12/19 00:18:17;;;;;;;8.20;3.30;;;7.00;99.90;;;;;;4964843;28;20058;-82
2021/12/19 00:20:42;;;;;;;9.73;3.72;;;7.00;99.90;;;;;;4963362;28;20146;-82
2021/12/19 00:23:08;;;;;;;9.00;3.10;;;7.00;99.90;;;;;;4952850;28;20042;-82
2021/12/19 00:25:34;;;;;;;7.68;3.30;;;7.00;99.90;;;;;;4960242;28;20407;-82
2021/12/19 00:28:00;;;;;;;10.05;3.63;;;7.00;99.90;;;;;;4954950;28;20054;-82
2021/12/19 00:30:25;;;;;;;8.52;2.92;;;7.00;99.90;;;;;;4955902;28;20030;-81
2021/12/19 00:32:51;;;;;;;8.10;3.83;;;7.00;99.90;;;;;;4963343;28;20101;-82
2021/12/19 00:35:17;;;;;;;8.27;3.10;;;7.00;99.90;;;;;;4968962;28;20074;-82
2021/12/19 00:37:43;;;;;;;9.82;3.80;;;7.00;99.90;;;;;;4953045;28;20053;-82
2021/12/19 00:40:10;;;;;;;9.20;3.00;;;7.00;99.90;;;;;;4965218;28;20053;-81
2021/12/19 00:42:37;;;;;;;8.85;2.90;;;7.00;99.90;;;;;;4955507;28;20037;-82
2021/12/19 00:45:28;;;;;;;6.63;2.70;;;7.00;99.90;;;;;;4964886;28;20046;-82
2021/12/19 00:47:54;;;;;;;6.50;2.80;;;7.00;99.90;;;;;;4968530;28;20048;-82
2021/12/19 00:50:22;;;;;;;6.30;2.70;;;7.00;99.90;;;;;;4973212;28;20035;-82
2021/12/19 00:52:48;;;;;;;6.28;2.70;;;7.00;99.90;;;;;;4965362;28;20043;-81
2021/12/19 00:55:19;;;;;;;8.65;2.63;;;7.00;99.90;;;;;;4971599;28;20097;-82
2021/12/19 00:57:45;;;;;;;8.88;2.80;;;7.00;99.90;;;;;;4974460;28;20043;-82
2021/12/19 01:00:14;;;;;;;6.15;2.13;;;7.00;99.90;;;;;;4952223;28;20496;-82
2021/12/19 01:02:39;;;;;;;8.00;2.50;;;7.00;99.90;;;;;;4957892;28;20042;-82
2021/12/19 01:05:05;;;;;;;8.57;2.42;;;7.00;99.90;;;;;;4947681;28;20058;-82
2021/12/19 01:07:31;;;;;;;5.93;2.30;;;7.00;99.90;;;;;;4955985;28;20181;-82
2021/12/19 01:09:57;;;;;;;7.22;2.33;;;7.00;99.90;;;;;;4963172;28;20078;-82
2021/12/19 01:12:24;;;;;;;5.30;2.10;;;7.00;99.90;;;;;;4951723;28;20460;-82
2021/12/19 01:14:50;;;;;;;6.70;2.20;;;7.00;99.90;;;;;;4963602;28;20408;-82
2021/12/19 01:17:16;;;;;;;8.23;2.88;;;7.00;99.90;;;;;;4966740;28;20045;-82
2021/12/19 01:19:44;;;;;;;5.72;1.92;;;7.00;99.90;;;;;;4950420;28;20043;-82
2021/12/19 01:22:10;;;;;;;7.15;1.85;;;7.00;99.90;;;;;;4970615;28;20361;-82
2021/12/19 01:24:36;;;;;;;5.78;1.88;;;7.00;99.90;;;;;;4975894;28;20645;-82
2021/12/19 01:27:01;;;;;;;5.25;1.85;;;7.00;99.90;;;;;;4965893;28;20038;-82
2021/12/19 01:29:27;;;;;;;5.30;1.80;;;7.00;99.90;;;;;;4961576;28;20078;-81
2021/12/19 01:31:53;;;;;;;5.95;2.22;;;7.00;99.90;;;;;;4954256;28;20034;-82
2021/12/19 01:34:19;;;;;;;6.38;2.35;;;7.00;99.90;;;;;;4970854;28;20053;-82
2021/12/19 01:36:45;;;;;;;4.10;1.40;;;7.00;99.90;;;;;;4948830;28;20030;-82
2021/12/19 01:39:11;;;;;;;7.10;2.53;;;7.00;99.90;;;;;;4949894;28;20456;-81
2021/12/19 01:41:49;;;;;;;6.53;2.00;;;7.00;99.90;;;;;;4962367;28;20350;-82
2021/12/19 01:44:15;;;;;;;5.53;2.00;;;7.00;99.90;;;;;;4961979;28;20050;-82
2021/12/19 01:46:41;;;;;;;4.47;1.42;;;7.00;99.90;;;;;;4955362;28;20407;-82
2021/12/19 01:49:07;;;;;;;4.25;1.25;;;7.00;99.90;;;;;;4972616;28;20519;-82
2021/12/19 01:51:32;;;;;;;4.63;1.50;;;7.00;99.90;;;;;;4969389;28;20038;-82
2021/12/19 01:53:58;;;;;;;6.07;1.50;;;7.00;99.90;;;;;;4967536;28;20566;-82
2021/12/19 01:56:24;;;;;;;5.32;1.40;;;7.00;99.90;;;;;;4956636;28;20042;-82
2021/12/19 01:58:49;;;;;;;4.75;1.50;;;7.00;99.90;;;;;;4965735;28;20138;-82
2021/12/19 02:01:15;;;;;;;4.43;1.60;;;7.00;99.90;;;;;;4969313;28;20066;-83
2021/12/19 02:03:41;;;;;;;5.60;1.60;;;7.00;99.90;;;;;;4968883;28;20041;-83
2021/12/19 02:06:06;;;;;;;3.88;1.20;;;7.00;99.90;;;;;;4959299;28;20038;-82
2021/12/19 02:08:32;;;;;;;3.65;1.33;;;7.00;99.90;;;;;;4957600;28;20042;-82
2021/12/19 02:10:58;;;;;;;3.17;1.00;;;7.00;99.90;;;;;;4983684;28;20065;-82
2021/12/19 02:13:23;;;;;;;3.78;0.88;;;7.00;99.90;;;;;;4955699;28;20035;-83
2021/12/19 02:15:50;;;;;;;2.90;0.90;;;7.00;99.90;;;;;;4953967;28;20047;-83
2021/12/19 02:18:21;;;;;;;2.13;0.60;;;7.00;99.90;;;;;;4951784;28;20491;-82
2021/12/19 02:20:55;;;;;;;2.03;0.70;;;7.00;99.90;;;;;;4961230;28;20042;-82
2021/12/19 02:23:22;;;;;;;3.50;0.90;;;7.00;99.90;;;;;;4981226;28;20150;-83
2021/12/19 02:25:48;;;;;;;2.15;0.60;;;7.00;99.90;;;;;;4968828;28;20042;-82
2021/12/19 02:28:15;;;;;;;5.30;0.90;;;7.00;99.90;;;;;;4969128;28;20125;-83
2021/12/19 02:30:41;;;;;;;4.18;0.90;;;7.00;99.90;;;;;;4969331;28;20050;-82
2021/12/19 02:33:11;;;;;;;4.35;1.08;;;7.00;99.90;;;;;;4953560;28;20043;-82
2021/12/19 02:35:37;;;;;;;3.10;0.95;;;7.00;99.90;;;;;;4954043;28;20039;-82
2021/12/19 02:48:32;;;;;;;2.30;0.50;;;7.00;99.90;;;;;;4964291;28;20510;-82
2021/12/19 02:50:58;;;;;;;2.45;0.45;;;6.90;99.90;;;;;;4963826;28;20046;-82
2021/12/19 02:53:33;;;;;;;3.13;0.75;;;6.90;99.90;;;;;;4948304;28;20078;-82
2021/12/19 02:56:05;;;;;;;2.92;0.60;;;6.90;99.90;;;;;;4975962;28;20086;-81
2021/12/19 02:58:32;;;;;;;3.08;0.70;;;6.90;99.90;;;;;;4961694;28;20058;-82
2021/12/19 03:00:59;;;;;;;3.33;0.93;;;6.90;99.90;;;;;;4966571;28;20396;-83
2021/12/19 03:03:25;;;;;;;3.30;0.80;;;6.90;99.90;;;;;;4963813;28;20026;-82
2021/12/19 03:05:50;;;;;;;2.40;0.55;;;6.90;99.90;;;;;;4966123;28;20049;-82
2021/12/19 03:08:17;;;;;;;3.53;0.77;;;6.90;99.90;;;;;;4956202;28;20043;-82
2021/12/19 03:17:56;;;;;;;3.25;0.77;;;6.90;99.90;;;;;;4964505;28;20030;-82
2021/12/19 03:19:03;;;;;;;1.92;0.57;;;6.90;99.90;;;;;;4961812;28;20455;-82
2021/12/19 03:21:29;;;;;;;1.90;0.52;;;6.90;99.90;;;;;;4975734;28;20097;-82
2021/12/19 03:23:54;;;;;;;2.50;0.50;;;6.80;99.90;;;;;;4971389;28;20039;-82
2021/12/19 03:26:20;;;;;;;2.83;0.50;;;6.80;99.90;;;;;;4963933;28;20039;-82
2021/12/19 03:28:46;;;;;;;2.42;0.60;;;6.80;99.90;;;;;;4970140;28;20049;-82
2021/12/19 03:31:12;;;;;;;2.20;0.43;;;6.80;99.90;;;;;;4954340;28;20049;-83
2021/12/19 03:33:38;;;;;;;2.55;0.40;;;6.80;99.90;;;;;;4964174;28;20046;-81
2021/12/19 03:36:05;;;;;;;3.38;0.60;;;6.80;99.90;;;;;;4980794;28;20038;-82
2021/12/19 03:38:33;;;;;;;1.55;0.40;;;6.80;99.90;;;;;;4967580;28;20524;-82
2021/12/19 03:41:21;;;;;;;1.75;0.40;;;6.80;99.90;;;;;;4963514;28;20046;-82
2021/12/19 03:43:48;;;;;;;2.15;0.60;;;6.80;99.90;;;;;;4971059;28;20511;-82
2021/12/19 03:46:14;;;;;;;2.08;0.40;;;6.70;99.90;;;;;;4966650;28;20133;-81
2021/12/19 03:48:40;;;;;;;1.33;0.30;;;6.70;99.90;;;;;;4963048;28;20042;-82
2021/12/19 03:51:06;;;;;;;2.35;0.40;;;6.70;99.90;;;;;;4948233;28;20190;-82
2021/12/19 03:53:32;;;;;;;1.73;0.30;;;6.70;99.90;;;;;;4978454;28;20042;-83
2021/12/19 03:55:58;;;;;;;2.00;0.30;;;6.70;99.90;;;;;;4968395;28;20527;-82
2021/12/19 03:58:23;;;;;;;2.65;0.40;;;6.70;99.90;;;;;;4965010;28;20066;-82
2021/12/19 04:00:51;;;;;;;0.38;0.13;;;6.70;99.90;;;;;;4961070;28;20049;-83
2021/12/19 04:03:21;;;;;;;0.75;0.17;;;6.70;99.90;;;;;;4968061;28;20432;-82
2021/12/19 04:05:47;;;;;;;3.67;0.50;;;6.70;99.90;;;;;;4965916;28;20421;-81
2021/12/19 04:08:14;;;;;;;1.27;0.35;;;6.70;99.90;;;;;;4971208;28;20603;-82
2021/12/19 04:10:40;;;;;;;1.33;0.32;;;6.70;99.90;;;;;;4961618;28;20050;-81
2021/12/19 04:13:07;;;;;;;0.85;0.20;;;6.70;99.90;;;;;;4951185;28;20100;-81
2021/12/19 04:15:33;;;;;;;0.82;0.30;;;6.70;99.90;;;;;;4965122;28;20043;-82
2021/12/19 04:17:59;;;;;;;0.77;0.20;;;6.60;99.90;;;;;;4964822;28;20162;-82
2021/12/19 04:20:24;;;;;;;1.52;0.20;;;6.60;99.90;;;;;;4950454;28;20084;-81
2021/12/19 04:22:52;;;;;;;1.17;0.35;;;6.60;99.90;;;;;;4979856;28;20435;-82
2021/12/19 04:25:18;;;;;;;1.75;0.30;;;6.60;99.90;;;;;;4960252;28;20035;-82
2021/12/19 04:27:45;;;;;;;1.45;0.30;;;6.60;99.90;;;;;;4964825;28;20038;-82
2021/12/19 04:30:14;;;;;;;0.60;0.20;;;6.60;99.90;;;;;;4945380;28;20042;-82
2021/12/19 04:32:44;;;;;;;1.08;0.20;;;6.60;99.90;;;;;;4949434;28;20039;-82
2021/12/19 04:35:10;;;;;;;1.67;0.20;;;6.60;99.90;;;;;;4959847;28;20039;-82
2021/12/19 04:51:19;;;;;;;0.85;0.20;;;6.50;99.90;;;;;;4963146;28;20047;-82
2021/12/19 05:05:03;;;;;;;1.42;0.30;;;6.60;99.90;;;;;;4964344;28;20196;-82
2021/12/19 05:15:36;;;;;;;3.35;0.40;;;6.60;99.90;;;;;;4966255;28;20038;-82
2021/12/19 05:18:06;;;;;;;2.05;0.30;;;6.60;99.90;;;;;;4969144;28;20041;-82
2021/12/19 05:20:33;;;;;;;1.92;0.20;;;6.60;99.90;;;;;;4953673;28;20065;-83
2021/12/19 05:23:10;;;;;;;0.50;0.10;;;6.60;99.90;;;;;;4969004;28;20539;-82
2021/12/19 05:25:36;;;;;;;0.95;0.20;;;6.60;99.90;;;;;;4977263;28;20050;-82
2021/12/19 05:28:01;;;;;;;0.63;0.20;;;6.50;99.90;;;;;;4959432;28;20400;-82
2021/12/19 05:30:27;;;;;;;1.23;0.20;;;6.50;99.90;;;;;;4955955;28;20045;-82
2021/12/19 05:32:54;;;;;;;4.13;0.22;;;6.50;99.90;;;;;;4981397;28;20478;-82
2021/12/19 05:35:31;;;;;;;0.95;0.30;;;6.40;99.90;;;;;;4962566;28;20128;-82
2021/12/19 05:46:09;;;;;;;1.00;0.40;;;6.40;99.90;;;;;;4967068;28;20046;-81
2021/12/19 05:48:35;;;;;;;6.10;0.63;;;6.40;99.90;;;;;;4969673;28;20460;-82
2021/12/19 05:51:01;;;;;;;2.58;0.50;;;6.40;99.90;;;;;;4964943;28;20034;-82
2021/12/19 05:53:27;;;;;;;3.55;0.75;;;6.40;99.90;;;;;;4962434;28;20054;-83
2021/12/19 05:55:52;;;;;;;10.07;0.52;;;6.40;99.90;;;;;;4963027;28;20054;-82
2021/12/19 05:58:18;;;;;;;2.33;0.70;;;6.40;99.90;;;;;;4966607;28;20039;-82
2021/12/19 06:00:44;;;;;;;4.53;1.30;;;6.40;99.90;;;;;;4954495;28;20079;-82
2021/12/19 06:03:10;;;;;;;2.97;1.13;;;6.40;99.90;;;;;;4969579;28;20448;-82
2021/12/19 06:05:36;;;;;;;6.85;1.08;;;6.40;99.90;;;;;;4963273;28;20043;-82
2021/12/19 06:08:01;;;;;;;4.60;1.30;;;6.40;99.90;;;;;;4962245;28;20050;-82
2021/12/19 06:10:28;;;;;;;4.65;1.13;;;6.50;99.90;;;;;;4962736;28;20035;-81
2021/12/19 06:12:55;;;;;;;3.50;1.30;;;6.50;99.90;;;;;;4955231;28;20058;-82
2021/12/19 06:15:21;;;;;;;7.65;1.77;;;6.50;99.90;;;;;;4950674;28;20038;-82
2021/12/19 06:17:46;;;;;;;6.22;1.80;;;6.50;99.90;;;;;;4985989;28;20104;-82
2021/12/19 06:20:13;;;;;;;5.53;1.92;;;6.50;99.90;;;;;;4965268;28;20027;-82
2021/12/19 06:22:40;;;;;;;5.13;1.67;;;6.50;99.90;;;;;;4953407;28;20559;-82
2021/12/19 06:25:06;;;;;;;5.82;1.80;;;6.50;99.90;;;;;;4951206;28;20046;-82
2021/12/19 06:27:32;;;;;;;4.68;1.55;;;6.50;99.90;;;;;;4951607;28;20042;-82
2021/12/19 06:29:57;;;;;;;5.05;1.75;;;6.50;99.90;;;;;;4968388;28;20046;-82
2021/12/19 06:32:23;;;;;;;6.57;2.33;;;6.50;99.90;;;;;;4949001;28;20073;-81
2021/12/19 06:34:49;;;;;;;7.60;2.25;;;6.50;99.90;;;;;;4938238;28;20070;-81
2021/12/19 06:37:14;;;;;;;6.10;1.90;;;6.50;99.90;;;;;;4985877;28;20102;-82
2021/12/19 06:39:40;;;;;;;4.55;1.77;;;6.50;99.90;;;;;;4954253;28;20042;-82
2021/12/19 06:42:09;;;;;;;7.47;1.92;;;6.60;99.90;;;;;;4961959;28;20039;-82
2021/12/19 06:44:36;;;;;;;7.20;2.00;;;6.60;99.90;;;;;;4973440;28;20047;-82
2021/12/19 06:47:03;;;;;;;6.30;1.95;;;6.60;99.90;;;;;;4959321;28;20138;-82
2021/12/19 06:49:28;;;;;;;7.78;2.20;;;6.60;99.90;;;;;;4967798;28;20509;-82
2021/12/19 06:51:54;;;;;;;8.88;2.58;;;6.60;99.90;;;;;;4957067;28;20070;-82
2021/12/19 06:54:20;;;;;;;11.40;2.70;;;6.60;99.90;;;;;;4979807;28;20565;-81
2021/12/19 06:56:46;;;;;;;10.45;3.50;;;6.60;99.90;;;;;;4953543;28;20376;-82
2021/12/19 06:59:12;;;;;;;6.13;2.60;;;6.70;99.90;;;;;;4970059;28;20042;-82
2021/12/19 07:01:38;;;;;;;7.72;2.80;;;6.70;99.90;;;;;;4960612;28;20065;-82
2021/12/19 07:04:05;;;;;;;10.73;2.88;;;6.70;99.90;;;;;;4966006;28;20068;-82
2021/12/19 07:06:30;;;;;;;9.52;3.60;;;6.70;99.90;;;;;;4962315;28;20466;-82
2021/12/19 07:08:56;;;;;;;11.48;3.40;;;6.70;99.90;;;;;;4960947;28;20134;-82
2021/12/19 07:11:22;;;;;;;10.10;4.10;;;6.70;99.90;;;;;;4969077;28;20046;-82
2021/12/19 07:13:48;;;;;;;10.00;3.70;;;6.70;99.90;;;;;;4969545;28;20052;-82
2021/12/19 07:16:14;;;;;;;11.90;4.35;;;6.70;99.90;;;;;;4952788;28;20082;-82
2021/12/19 07:18:40;;;;;;;18.73;4.80;;;6.70;99.90;;;;;;4951872;28;20524;-82
2021/12/19 07:21:07;;;;;;;16.85;4.35;;;6.70;99.90;;;;;;4947758;28;20031;-82
2021/12/19 07:23:33;;;;;;;10.38;3.60;;;6.80;99.90;;;;;;4975618;28;20046;-82
2021/12/19 07:26:02;;;;;;;15.25;3.63;;;6.80;99.90;;;;;;4950860;28;20186;-82
2021/12/19 07:28:28;;;;;;;11.57;3.67;;;6.80;99.90;;;;;;4950211;28;20092;-82
2021/12/19 07:30:54;;;;;;;13.80;4.00;;;6.80;99.90;;;;;;4968486;28;20125;-82
2021/12/19 07:33:19;;;;;;;14.75;4.03;;;6.80;99.90;;;;;;4973196;28;20177;-81
2021/12/19 07:35:47;;;;;;;9.65;3.50;;;6.80;99.90;;;;;;4954096;28;20050;-81
2021/12/19 07:38:22;;;;;;;16.13;4.07;;;6.80;99.90;;;;;;4948493;28;20122;-81
2021/12/19 07:40:50;;;;;;;13.27;4.22;;;6.80;99.90;;;;;;4953693;28;20671;-82
2021/12/19 07:43:16;;;;;;;15.43;4.30;;;6.80;99.90;;;;;;4971632;28;20050;-81
2021/12/19 07:45:43;;;;;;;10.55;3.83;;;6.80;99.90;;;;;;4947381;28;20039;-82
2021/12/19 07:48:08;;;;;;;12.45;3.47;;;6.80;99.90;;;;;;4948950;28;20039;-82
2021/12/19 07:50:35;;;;;;;10.45;3.00;;;6.80;99.90;;;;;;4968895;28;20037;-82
2021/12/19 07:53:01;;;;;;;14.00;3.20;;;6.80;99.90;;;;;;4955276;28;20609;-82
2021/12/19 07:55:27;;;;;;;9.63;3.30;;;6.80;99.90;;;;;;4945359;28;20062;-82
2021/12/19 07:57:53;;;;;;;16.98;3.33;;;6.80;99.90;;;;;;4960208;28;20049;-82
2021/12/19 08:00:20;;;;;;;11.13;3.60;;;6.80;99.90;;;;;;4963769;28;20035;-81
2021/12/19 08:02:47;;;;;;;10.27;3.70;;;6.80;99.90;;;;;;4962489;28;20129;-82
2021/12/19 08:05:14;;;;;;;12.02;3.55;;;6.80;99.90;;;;;;4953401;28;20395;-82
2021/12/19 08:07:42;;;;;;;14.18;3.97;;;6.80;99.90;;;;;;4974499;28;20047;-82
2021/12/19 08:12:35;;;;;;;15.30;4.32;;;6.80;99.90;;;;;;4963115;28;20064;-82
2021/12/19 08:15:01;;;;;;;14.73;3.72;;;6.80;99.90;;;;;;4958244;28;20416;-82
2021/12/19 08:17:27;;;;;;;9.65;3.50;;;6.80;99.90;;;;;;4939018;28;20617;-81
2021/12/19 08:19:52;;;;;;;12.27;4.13;;;6.80;99.90;;;;;;4952961;28;20069;-82
2021/12/19 08:22:19;;;;;;;13.93;3.75;;;6.80;99.90;;;;;;4972013;28;20038;-82
2021/12/19 08:24:46;;;;;;;13.05;3.60;;;6.80;99.90;;;;;;4971594;28;20043;-82
2021/12/19 08:27:12;;;;;;;11.23;2.92;;;6.80;99.90;;;;;;4961316;28;20089;-82
2021/12/19 08:29:38;;;;;;;13.10;3.67;;;6.80;99.90;;;;;;4971848;28;20435;-82
2021/12/19 08:32:04;;;;;;;8.98;2.75;;;6.80;99.90;;;;;;4967211;28;20043;-82
2021/12/19 08:34:30;;;;;;;15.18;3.08;;;6.80;99.90;;;;;;4964041;28;20050;-82
2021/12/19 08:36:55;;;;;;;7.63;2.55;;;6.80;99.90;;;;;;4964227;28;20479;-81
2021/12/19 08:39:22;;;;;;;9.38;2.70;;;6.80;99.90;;;;;;4955595;28;20054;-82
2021/12/19 08:41:48;;;;;;;14.77;2.90;;;6.80;99.90;;;;;;4972490;28;20109;-82
2021/12/19 08:44:13;;;;;;;7.80;2.03;;;6.90;99.90;;;;;;4952499;28;20500;-82
2021/12/19 08:46:40;;;;;;;9.63;2.00;;;6.90;99.90;;;;;;4964458;28;20046;-82
2021/12/19 08:49:08;;;;;;;5.00;2.00;;;6.90;99.90;;;;;;4963364;28;20053;-81
2021/12/19 08:51:35;;;;;;;9.55;1.95;;;6.90;99.90;;;;;;4964102;28;20482;-82
2021/12/19 08:54:01;;;;;;;6.85;2.17;;;6.90;99.90;;;;;;4960645;28;20050;-82
2021/12/19 08:56:28;;;;;;;4.88;1.90;;;6.90;99.90;;;;;;4958622;28;20484;-82
2021/12/19 08:58:54;;;;;;;4.95;1.55;;;6.90;99.90;;;;;;4965833;28;20484;-82
2021/12/19 09:01:20;;;;;;;9.85;2.20;;;7.00;99.90;;;;;;4962959;28;20041;-82
2021/12/19 09:03:46;;;;;;;10.27;2.00;;;6.90;99.90;;;;;;4944015;28;20035;-82
2021/12/19 09:06:11;;;;;;;8.07;2.28;;;7.00;99.90;;;;;;4953374;28;20046;-82
2021/12/19 09:08:37;;;;;;;6.75;1.80;;;6.90;99.90;;;;;;4971015;28;20149;-82
2021/12/19 09:11:03;;;;;;;9.38;2.53;;;7.00;99.90;;;;;;4964643;28;20077;-82
2021/12/19 09:13:29;;;;;;;5.65;1.67;;;6.90;99.90;;;;;;4974174;28;20495;-82
2021/12/19 09:15:55;;;;;;;4.22;1.50;;;6.90;99.90;;;;;;4941240;28;20047;-82
2021/12/19 09:18:20;;;;;;;6.55;1.50;;;7.00;99.90;;;;;;4965221;28;20125;-82
2021/12/19 09:20:46;;;;;;;12.02;1.95;;;7.00;99.90;;;;;;4961877;28;20490;-82
2021/12/19 09:23:12;;;;;;;11.50;2.15;;;6.90;99.90;;;;;;4972026;28;20041;-82
2021/12/19 09:25:39;;;;;;;6.80;2.05;;;7.00;99.90;;;;;;4955796;28;20046;-82
2021/12/19 09:28:05;;;;;;;7.03;1.90;;;7.00;99.90;;;;;;4980059;28;20085;-82
2021/12/19 09:30:31;;;;;;;9.20;2.20;;;7.00;99.90;;;;;;4960679;28;20129;-82
2021/12/19 09:32:57;;;;;;;6.53;1.73;;;7.00;99.90;;;;;;4980518;28;20282;-82
2021/12/19 09:35:23;;;;;;;7.00;2.05;;;7.00;99.90;;;;;;4970888;28;20481;-82
2021/12/19 09:37:48;;;;;;;6.95;2.20;;;7.00;99.90;;;;;;4957519;28;20418;-83
2021/12/19 09:40:24;;;;;;;10.38;2.20;;;7.00;99.90;;;;;;4948187;28;20030;-82
2021/12/19 09:43:00;;;;;;;8.60;1.85;;;7.00;99.90;;;;;;4962099;28;20067;-82
2021/12/19 09:45:25;;;;;;;7.30;1.77;;;7.00;99.90;;;;;;4946853;28;20476;-83
2021/12/19 09:47:51;;;;;;;10.80;1.92;;;7.00;99.90;;;;;;4964527;28;20085;-83
2021/12/19 09:50:17;;;;;;;9.23;1.90;;;7.00;99.90;;;;;;4952381;28;20043;-82
2021/12/19 09:52:45;;;;;;;6.60;1.98;;;7.10;99.90;;;;;;4957750;28;20039;-82
2021/12/19 09:55:16;;;;;;;7.15;1.92;;;7.10;99.90;;;;;;4947516;28;20100;-82
2021/12/19 09:57:41;;;;;;;7.22;2.00;;;7.10;99.90;;;;;;4949017;28;20073;-82
2021/12/19 10:00:07;;;;;;;6.10;1.65;;;7.10;99.90;;;;;;4966425;28;20071;-82
2021/12/19 10:02:33;;;;;;;7.90;2.40;;;7.10;99.90;;;;;;4961373;28;20724;-82
2021/12/19 10:05:17;;;;;;;13.00;1.77;;;7.10;99.90;;;;;;4964686;28;20065;-82
2021/12/19 10:07:49;;;;;;;6.70;1.77;;;7.20;99.90;;;;;;4964109;28;20128;-82
2021/12/19 10:10:24;;;;;;;9.30;2.27;;;7.10;99.90;;;;;;4978370;28;20045;-82
2021/12/19 10:12:58;;;;;;;11.63;2.25;;;7.20;99.90;;;;;;4962367;28;20792;-81
2021/12/19 10:15:33;;;;;;;7.63;2.05;;;7.20;99.90;;;;;;4966351;28;20035;-81
2021/12/19 10:18:11;;;;;;;9.60;2.00;;;7.20;99.90;;;;;;4977170;28;20042;-82
2021/12/19 10:20:46;;;;;;;11.35;1.73;;;7.20;99.90;;;;;;4964544;28;20090;-82
2021/12/19 10:23:19;;;;;;;8.45;2.30;;;7.20;99.90;;;;;;4960322;28;20066;-82
2021/12/19 10:25:56;;;;;;;12.30;2.20;;;7.20;99.90;;;;;;4966062;28;20082;-82
2021/12/19 10:28:21;;;;;;;10.57;1.80;;;7.20;99.90;;;;;;4948207;28;20085;-81
2021/12/19 10:30:49;;;;;;;12.18;2.08;;;7.20;99.90;;;;;;4949483;28;20074;-82
2021/12/19 10:33:22;;;;;;;9.52;1.83;;;7.20;99.90;;;;;;4953364;28;20491;-82
2021/12/19 10:35:50;;;;;;;9.43;1.65;;;7.20;99.90;;;;;;4957863;28;20093;-81
2021/12/19 10:38:23;;;;;;;10.18;1.80;;;7.30;99.90;;;;;;4948245;28;20062;-81
2021/12/19 10:41:08;;;;;;;11.45;1.88;;;7.30;99.90;;;;;;4960110;28;20030;-81
2021/12/19 10:43:41;;;;;;;7.18;1.77;;;7.30;99.90;;;;;;4959551;28;20089;-82
2021/12/19 10:46:09;;;;;;;6.60;1.65;;;7.30;99.90;;;;;;4961478;28;20077;-82
2021/12/19 10:48:38;;;;;;;7.90;1.67;;;7.30;99.90;;;;;;4964310;28;20504;-82
2021/12/19 10:51:16;;;;;;;8.48;1.70;;;7.30;99.90;;;;;;4946872;28;20038;-83
2021/12/19 10:53:45;;;;;;;8.13;1.90;;;7.30;99.90;;;;;;4943483;28;20058;-82
2021/12/19 10:56:17;;;;;;;13.57;2.13;;;7.30;99.90;;;;;;4946388;28;20062;-82
2021/12/19 10:58:45;;;;;;;8.93;1.88;;;7.30;99.90;;;;;;4946955;28;20038;-84
2021/12/19 11:01:20;;;;;;;8.90;1.85;;;7.30;99.90;;;;;;4976460;28;20093;-82
2021/12/19 11:04:06;;;;;;;12.95;3.05;;;7.30;99.90;;;;;;4947843;28;20128;-82
2021/12/19 11:06:43;;;;;;;12.05;1.90;;;7.40;99.90;;;;;;4964919;28;20050;-82
2021/12/19 11:09:15;;;;;;;8.38;1.77;;;7.40;99.90;;;;;;4950786;28;20049;-83
2021/12/19 11:11:53;;;;;;;8.00;1.60;;;7.40;99.90;;;;;;4969715;28;20093;-84
2021/12/19 11:14:20;;;;;;;12.88;2.22;;;7.40;99.90;;;;;;4948566;28;21262;-84
2021/12/19 11:16:47;;;;;;;7.78;2.58;;;7.40;99.90;;;;;;4957326;28;20433;-83
2021/12/19 11:19:12;;;;;;;6.82;1.67;;;7.40;99.90;;;;;;4939062;28;20035;-82
2021/12/19 11:21:38;;;;;;;6.28;1.60;;;7.40;99.90;;;;;;4963464;28;20177;-82
2021/12/19 11:24:10;;;;;;;8.35;1.92;;;7.40;99.90;;;;;;4978846;28;20039;-83
2021/12/19 11:26:38;;;;;;;11.25;1.70;;;7.40;99.90;;;;;;4974602;28;20050;-83
2021/12/19 11:29:05;;;;;;;13.57;1.55;;;7.40;99.90;;;;;;4965257;28;20094;-83
2021/12/19 11:31:32;;;;;;;11.20;2.03;;;7.40;99.90;;;;;;4962505;28;20046;-83
2021/12/19 11:34:03;;;;;;;8.95;1.67;;;7.40;99.90;;;;;;4962483;28;20425;-82
2021/12/19 11:36:35;;;;;;;12.15;2.00;;;7.50;99.90;;;;;;4971693;28;20898;-82
2021/12/19 11:39:04;;;;;;;11.25;3.25;;;7.40;99.90;;;;;;4969708;28;20042;-83
2021/12/19 11:41:31;;;;;;;9.80;3.03;;;7.50;99.90;;;;;;4966976;28;20434;-82
2021/12/19 11:47:48;;;;;;;11.80;2.05;;;7.50;99.90;;;;;;5142688;22;20068;-83
2021/12/19 11:50:25;;;;;;;12.50;1.90;;;7.50;99.90;;;;;;4987427;28;20049;-83
2021/12/19 11:52:56;;;;;;;10.57;3.20;;;7.60;99.90;;;;;;4985766;28;20051;-83
2021/12/19 11:55:38;;;;;;;9.25;1.98;;;7.50;99.90;;;;;;4972435;28;20042;-82
2021/12/19 11:58:11;;;;;;;10.93;5.18;;;7.50;99.90;;;;;;4989382;28;20424;-81
2021/12/19 12:01:00;;;;;;;10.20;3.30;;;7.50;99.90;;;;;;4984775;28;20533;-82
2021/12/19 12:03:30;;;;;;;12.50;5.18;;;7.60;99.90;;;;;;4989295;28;20506;-82
2021/12/19 12:05:58;;;;;;;16.02;6.32;;;7.60;99.90;;;;;;4974547;28;20042;-82
2021/12/19 12:08:25;;;;;;;13.80;6.18;;;7.50;99.90;;;;;;4987332;28;20046;-82
2021/12/19 12:10:59;;;;;;;8.55;2.75;;;7.60;99.90;;;;;;4974129;28;20589;-82
2021/12/19 12:13:26;;;;;;;9.88;5.28;;;7.50;99.90;;;;;;4970627;28;20050;-82
2021/12/19 12:16:00;;;;;;;17.73;6.50;;;7.50;99.90;;;;;;4986455;28;20050;-82
2021/12/19 12:18:31;;;;;;;18.30;7.35;;;7.50;99.90;;;;;;4985829;28;20049;-83
2021/12/19 12:20:57;;;;;;;12.40;4.03;;;7.60;99.90;;;;;;4986040;28;20042;-82
2021/12/19 12:23:27;;;;;;;18.45;6.55;;;7.50;99.90;;;;;;4974336;28;20030;-82
2021/12/19 12:25:54;;;;;;;27.65;11.57;;;7.50;99.90;;;;;;4989008;28;20053;-82
2021/12/19 12:28:20;;;;;;;8.60;3.15;;;7.50;99.90;;;;;;4989983;28;20515;-82
2021/12/19 12:30:52;;;;;;;13.80;3.50;;;7.60;99.90;;;;;;4972647;28;20069;-82
2021/12/19 12:33:24;;;;;;;24.58;10.23;;;7.60;99.90;;;;;;5003941;28;20050;-82
2021/12/19 12:35:51;;;;;;;;;;;7.60;99.90;;;;;;4988401;28;20108;-82
2021/12/19 12:38:18;;;;;;;6.13;1.58;;;7.60;99.90;;;;;;5005649;28;19917;-82
2021/12/19 12:41:07;;;;;;;9.50;1.88;;;7.60;99.90;;;;;;4988840;28;20049;-82
2021/12/19 12:43:39;;;;;;;10.75;2.00;;;7.60;99.90;;;;;;4989652;28;20035;-81
2021/12/19 12:46:19;;;;;;;8.23;1.70;;;7.60;99.90;;;;;;4971041;28;20053;-82
2021/12/19 12:48:57;;;;;;;7.72;2.13;;;7.60;99.90;;;;;;4970313;28;20046;-82
2021/12/19 12:51:38;;;;;;;11.45;1.92;;;7.60;99.90;;;;;;4965402;28;20057;-82
2021/12/19 12:54:16;;;;;;;9.63;1.57;;;7.60;99.90;;;;;;4970035;28;20132;-82
2021/12/19 12:56:49;;;;;;;9.45;2.00;;;7.70;99.90;;;;;;4968387;28;20101;-82
2021/12/19 12:59:20;;;;;;;7.70;1.40;;;7.60;99.90;;;;;;4969308;28;20041;-83
2021/12/19 13:01:55;;;;;;;7.38;1.60;;;7.70;99.90;;;;;;4949881;28;20043;-82
2021/12/19 13:04:25;;;;;;;12.23;1.90;;;7.70;99.90;;;;;;4970730;28;20575;-83
2021/12/19 13:06:57;;;;;;;8.27;1.38;;;7.70;99.90;;;;;;4969080;28;20436;-82
2021/12/19 13:09:41;;;;;;;8.97;1.40;;;7.70;99.90;;;;;;4954121;28;20090;-82
2021/12/19 13:12:24;;;;;;;5.13;1.50;;;7.70;99.90;;;;;;4971240;28;20508;-82
2021/12/19 13:14:53;;;;;;;;;;;7.70;99.90;;;;;;4982565;28;20563;-82
2021/12/19 13:17:21;;;;;;;7.55;1.55;;;7.60;99.90;;;;;;4969337;28;19926;-83
2021/12/19 13:19:52;;;;;;;10.57;1.85;;;7.60;99.90;;;;;;4967916;28;20039;-81
2021/12/19 13:22:21;;;;;;;11.43;2.50;;;7.60;99.90;;;;;;4970052;28;20062;-82
2021/12/19 13:24:48;;;;;;;12.45;2.20;;;7.60;99.90;;;;;;4968392;28;20039;-82
2021/12/19 13:27:33;;;;;;;12.60;2.05;;;7.70;99.90;;;;;;4966185;28;20403;-82
2021/12/19 13:30:17;;;;;;;10.18;3.10;;;7.60;99.90;;;;;;4964271;28;20057;-83
2021/12/19 13:33:07;;;;;;;88.60;52.00;;;7.60;99.90;;;;;;4965680;28;20043;-82
2021/12/19 13:35:41;;;;;;;62.75;33.17;;;7.70;99.90;;;;;;4968951;28;20042;-82
2021/12/19 13:38:14;;;;;;;17.55;5.80;;;7.60;99.90;;;;;;4952885;28;20043;-82
2021/12/19 13:40:58;;;;;;;14.82;5.85;;;7.60;99.90;;;;;;4947826;28;20438;-82
2021/12/19 13:43:35;;;;;;;11.50;2.25;;;7.60;99.90;;;;;;4969114;28;20051;-82
2021/12/19 13:46:14;;;;;;;14.98;2.90;;;7.60;99.90;;;;;;4963530;28;20090;-82
2021/12/19 13:48:41;;;;;;;8.10;1.80;;;7.60;99.90;;;;;;4967690;28;20621;-82
2021/12/19 13:51:14;;;;;;;10.13;2.10;;;7.70;99.90;;;;;;4955113;28;20039;-82
2021/12/19 13:53:55;;;;;;;8.57;1.77;;;7.60;99.90;;;;;;4967275;28;20450;-81
2021/12/19 13:56:24;;;;;;;14.60;1.63;;;7.60;99.90;;;;;;4951772;28;20078;-82
2021/12/19 13:59:02;;;;;;;14.98;3.17;;;7.70;99.90;;;;;;4953081;28;20427;-82
2021/12/19 14:01:36;;;;;;;12.40;2.08;;;7.70;99.90;;;;;;4951994;28;20051;-82
2021/12/19 14:04:16;;;;;;;14.88;2.78;;;7.60;99.90;;;;;;4969479;28;20047;-82
2021/12/19 14:06:42;;;;;;;11.00;1.75;;;7.60;99.90;;;;;;4972063;28;20412;-81
2021/12/19 14:09:12;;;;;;;9.40;2.17;;;7.60;99.90;;;;;;4951208;28;20050;-81